Terminal Aerodrome Forecast
Issued by NWS

Home | Current Version | Previous Version | Text Only | Print | Product List | Glossary On
Versions: 1 2 3 4 5 6 7 8 9 10 11 12 13 14 15 16 17 18 19 20 21
000
FTUS41 KPHI 191328 AAA
TAFMIV
TAF AMD
KMIV 191328Z 1913/2012 00000KT P6SM BKN200
      TEMPO 1913/1914 5SM BR
     FM191800 19008KT P6SM BKN060
     FM192000 19008KT P6SM OVC025
     FM192200 18007KT 5SM -SHRA BR OVC015
     FM192300 16004KT 2SM BR OVC007
     FM200500 20005KT 1SM -DZ BR OVC003 WS020/23040KT=

USA.gov is the U.S. government's official web portal to all federal, state and local government web resources and services.